Time;durP1;ratioP1;P1;durP2;ratioP2;P2;SDS_P1;SDS_P2;PMS_P1;PMS_P2;Temp;Humidity;BMP_temperature;BMP_pressure;BME280_temperature;BME280_humidity;BME280_pressure;Samples;Min_cycle;Max_cycle;Signal;HPM_P1;HPM_P2
2023/03/31 00:00:25;;;;;;;13.70;6.55;;;;;;;8.53;100.00;95617.03;4953224;28;20082;-65
2023/03/31 00:02:52;;;;;;;14.82;6.93;;;;;;;8.52;100.00;95615.38;4949776;28;20031;-65
2023/03/31 00:05:20;;;;;;;10.50;6.57;;;;;;;8.52;100.00;95616.22;4954527;28;20074;-65
2023/03/31 00:07:48;;;;;;;13.20;7.57;;;;;;;8.49;100.00;95613.00;4952830;28;20063;-65
2023/03/31 00:10:14;;;;;;;11.65;8.13;;;;;;;8.49;100.00;95619.06;4955645;28;20031;-65
2023/03/31 00:12:39;;;;;;;13.32;7.20;;;;;;;8.49;100.00;95626.91;4947395;28;20035;-64
2023/03/31 00:15:06;;;;;;;14.68;6.82;;;;;;;8.50;100.00;95619.94;4958012;28;20023;-65
2023/03/31 00:17:32;;;;;;;11.52;6.32;;;;;;;8.72;100.00;95635.50;4952701;28;20107;-65
2023/03/31 00:19:59;;;;;;;13.18;6.35;;;;;;;8.71;100.00;95630.38;4955628;28;20061;-65
2023/03/31 00:22:28;;;;;;;14.10;7.18;;;;;;;8.66;100.00;95617.66;4957362;28;20039;-65
2023/03/31 00:24:54;;;;;;;11.55;6.50;;;;;;;8.72;100.00;95627.63;4944803;28;20091;-65
2023/03/31 00:27:19;;;;;;;7.97;6.10;;;;;;;8.64;100.00;95616.13;4954782;28;20618;-64
2023/03/31 00:29:46;;;;;;;9.73;6.65;;;;;;;8.80;100.00;95616.47;4955593;28;20027;-65
2023/03/31 00:32:13;;;;;;;14.55;6.30;;;;;;;8.74;100.00;95607.31;4948952;28;20036;-65
2023/03/31 00:34:39;;;;;;;12.38;6.28;;;;;;;8.93;100.00;95623.25;4943895;28;20054;-65
2023/03/31 00:37:05;;;;;;;10.70;6.88;;;;;;;8.74;100.00;95606.50;4954542;28;20024;-65
2023/03/31 00:39:32;;;;;;;16.67;6.85;;;;;;;8.70;100.00;95605.09;4952926;28;20038;-65
2023/03/31 00:41:58;;;;;;;14.27;7.00;;;;;;;8.70;100.00;95605.09;4949848;28;20605;-65
2023/03/31 00:44:24;;;;;;;10.63;6.78;;;;;;;8.70;100.00;95598.06;4953842;28;20050;-64
2023/03/31 00:47:01;;;;;;;10.32;6.22;;;;;;;8.69;100.00;95592.94;4927261;29;20043;-65
2023/03/31 00:49:33;;;;;;;9.18;6.30;;;;;;;8.68;100.00;95576.38;4954862;28;20470;-65
2023/03/31 00:52:25;;;;;;;9.57;6.88;;;;;;;8.72;100.00;95574.28;4950804;28;20031;-65
2023/03/31 00:54:55;;;;;;;10.45;5.90;;;;;;;8.71;100.00;95572.63;4944255;28;20047;-65
2023/03/31 00:57:22;;;;;;;11.60;6.20;;;;;;;8.73;100.00;95581.19;4950115;28;20054;-65
2023/03/31 00:59:52;;;;;;;10.50;6.60;;;;;;;8.93;100.00;95589.13;4948178;28;20048;-65
2023/03/31 01:02:21;;;;;;;10.80;6.10;;;;;;;9.05;100.00;95595.94;4956394;28;20067;-64
2023/03/31 01:04:53;;;;;;;13.88;5.78;;;;;;;9.10;100.00;95590.28;4954198;28;20027;-65
2023/03/31 01:07:50;;;;;;;16.98;5.78;;;;;;;8.98;100.00;95593.03;4951625;28;20039;-65
2023/03/31 01:10:17;;;;;;;11.82;5.95;;;;;;;8.91;100.00;95585.81;4953700;28;20050;-65
2023/03/31 01:12:48;;;;;;;11.77;6.85;;;;;;;8.86;100.00;95579.19;4945046;28;20031;-65
2023/03/31 01:15:14;;;;;;;12.73;6.43;;;;;;;8.90;100.00;95571.88;4950588;28;20074;-65
2023/03/31 01:17:43;;;;;;;14.05;7.03;;;;;;;8.91;100.00;95567.44;4945346;28;20476;-65
2023/03/31 01:20:27;;;;;;;18.30;7.55;;;;;;;8.85;100.00;95564.38;4943851;28;20040;-65
2023/03/31 01:23:05;;;;;;;12.23;6.60;;;;;;;8.86;100.00;95573.09;4940961;28;20028;-65
2023/03/31 01:26:08;;;;;;;13.02;7.35;;;;;;;8.84;100.00;95565.34;4957060;28;20030;-65
2023/03/31 01:29:07;;;;;;;9.63;6.43;;;;;;;8.85;100.00;95553.88;4953597;28;20039;-65
2023/03/31 01:31:42;;;;;;;12.55;6.68;;;;;;;8.83;100.00;95563.69;4951464;28;20576;-65
2023/03/31 01:34:26;;;;;;;13.48;6.65;;;;;;;8.86;100.00;95554.72;4940473;28;20036;-65
2023/03/31 01:37:20;;;;;;;14.18;6.97;;;;;;;8.81;100.00;95536.75;4939469;28;20024;-65
2023/03/31 01:40:07;;;;;;;7.85;6.50;;;;;;;8.83;100.00;95542.69;4940946;28;20034;-65
2023/03/31 01:43:04;;;;;;;13.23;7.28;;;;;;;8.83;100.00;95537.44;4944565;28;20469;-65
2023/03/31 01:45:53;;;;;;;12.25;6.35;;;;;;;8.81;100.00;95528.03;4948820;28;20069;-65
2023/03/31 01:48:52;;;;;;;10.25;6.13;;;;;;;8.88;100.00;95527.34;4954366;28;20496;-65
2023/03/31 01:51:28;;;;;;;7.85;5.88;;;;;;;8.86;100.00;95541.59;4885898;29;20528;-65
2023/03/31 01:54:02;;;;;;;13.75;5.95;;;;;;;8.86;100.00;95534.53;4952509;28;20067;-64
2023/03/31 01:56:36;;;;;;;10.98;6.18;;;;;;;8.81;100.00;95523.63;4944179;28;20043;-65
2023/03/31 01:59:18;;;;;;;12.55;6.22;;;;;;;8.91;100.00;95518.41;4930247;28;20028;-65
2023/03/31 02:01:55;;;;;;;10.15;5.60;;;;;;;8.93;100.00;95508.59;4950523;28;20035;-65
2023/03/31 02:04:50;;;;;;;10.20;5.95;;;;;;;8.89;100.00;95499.31;4940531;28;20460;-64
2023/03/31 02:07:21;;;;;;;8.48;5.47;;;;;;;8.93;100.00;95497.22;4951839;28;20035;-65
2023/03/31 02:09:52;;;;;;;10.65;5.97;;;;;;;8.89;100.00;95501.94;4957081;28;20098;-65
2023/03/31 02:12:21;;;;;;;12.15;5.75;;;;;;;8.86;100.00;95495.16;4942268;28;20023;-64
2023/03/31 02:14:51;;;;;;;10.80;6.25;;;;;;;8.87;100.00;95488.13;4956020;28;20034;-64
2023/03/31 02:17:29;;;;;;;10.98;5.50;;;;;;;8.94;100.00;95489.22;4945424;28;20452;-65
2023/03/31 02:19:57;;;;;;;9.40;5.30;;;;;;;8.87;100.00;95475.81;4956516;28;20046;-64
2023/03/31 02:22:23;;;;;;;9.27;5.78;;;;;;;8.87;100.00;95470.56;4947538;28;20027;-65
2023/03/31 02:24:52;;;;;;;8.02;5.20;;;;;;;8.97;100.00;95459.25;4946804;28;20024;-65
2023/03/31 02:27:37;;;;;;;10.23;5.15;;;;;;;9.12;100.00;95446.53;4957134;28;20031;-65
2023/03/31 02:30:03;;;;;;;;;;;;;;;9.09;100.00;95436.31;4940840;28;20468;-65
2023/03/31 02:32:34;;;;;;;9.23;5.72;;;;;;;9.02;100.00;95425.53;4938159;28;19977;-65
2023/03/31 02:35:00;;;;;;;11.43;5.68;;;;;;;8.92;100.00;95416.81;4951399;28;20471;-65
2023/03/31 02:37:28;;;;;;;9.77;6.35;;;;;;;8.93;100.00;95400.09;4962694;28;20027;-65
2023/03/31 02:39:56;;;;;;;14.25;6.20;;;;;;;8.97;100.00;95404.94;4946088;28;20039;-65
2023/03/31 02:42:22;;;;;;;12.07;5.50;;;;;;;8.89;100.00;95404.81;4946868;28;20506;-65
2023/03/31 02:44:48;;;;;;;14.13;5.95;;;;;;;8.80;100.00;95403.84;4953345;28;20023;-65
2023/03/31 02:47:16;;;;;;;13.27;6.22;;;;;;;8.72;100.00;95416.81;4948700;28;20562;-65
2023/03/31 02:49:47;;;;;;;13.63;7.70;;;;;;;8.71;100.00;95415.16;4960673;28;20031;-65
2023/03/31 02:52:44;;;;;;;8.77;6.30;;;;;;;8.78;100.00;95405.78;4965709;28;20024;-65
2023/03/31 02:55:42;;;;;;;12.18;6.93;;;;;;;8.75;100.00;95408.69;4933716;28;20040;-65
2023/03/31 02:58:17;;;;;;;9.40;6.13;;;;;;;8.67;100.00;95406.75;4951010;28;20078;-65
2023/03/31 03:00:58;;;;;;;14.33;6.57;;;;;;;8.69;100.00;95403.97;4943773;28;20027;-65
2023/03/31 03:03:40;;;;;;;10.98;7.22;;;;;;;8.65;100.00;95406.06;4943338;28;20024;-65
2023/03/31 03:06:22;;;;;;;12.82;6.47;;;;;;;8.65;100.00;95397.34;4944031;28;20030;-65
2023/03/31 03:09:07;;;;;;;14.38;5.53;;;;;;;8.91;100.00;95404.66;4954290;28;20412;-65
2023/03/31 03:11:50;;;;;;;13.18;7.15;;;;;;;8.79;100.00;95406.59;4941014;28;20028;-65
2023/03/31 03:14:21;;;;;;;16.30;7.80;;;;;;;8.73;100.00;95400.09;4949507;28;20031;-64
2023/03/31 03:16:52;;;;;;;12.20;6.85;;;;;;;8.75;100.00;95403.44;4941273;28;20023;-65
2023/03/31 03:19:21;;;;;;;11.05;6.45;;;;;;;8.81;100.00;95394.16;4950385;28;20075;-65
2023/03/31 03:21:46;;;;;;;16.15;7.30;;;;;;;8.92;100.00;95385.31;4944588;28;20016;-65
2023/03/31 03:24:14;;;;;;;13.45;6.70;;;;;;;8.88;100.00;95379.53;4950009;28;20046;-65
2023/03/31 03:26:40;;;;;;;13.60;6.25;;;;;;;8.90;100.00;95385.47;4957336;28;20039;-65
2023/03/31 03:29:05;;;;;;;10.35;5.40;;;;;;;8.84;100.00;95386.84;4945927;28;20060;-65
2023/03/31 03:31:32;;;;;;;10.65;5.30;;;;;;;8.82;100.00;95380.91;4955226;28;20447;-65
2023/03/31 03:33:58;;;;;;;8.45;5.30;;;;;;;8.82;100.00;95393.19;4957418;29;20038;-65
2023/03/31 03:36:23;;;;;;;12.93;6.93;;;;;;;8.78;100.00;95379.53;4953619;28;20027;-65
2023/03/31 03:38:48;;;;;;;10.25;5.93;;;;;;;8.86;100.00;95361.28;4948261;28;20497;-65
2023/03/31 03:41:14;;;;;;;10.35;5.47;;;;;;;8.80;100.00;95364.47;4938279;28;20067;-65
2023/03/31 03:43:39;;;;;;;10.73;5.90;;;;;;;8.79;100.00;95357.56;4954640;28;20058;-65
2023/03/31 03:46:05;;;;;;;13.25;6.13;;;;;;;8.89;100.00;95352.31;4956750;28;20091;-65
2023/03/31 03:48:30;;;;;;;11.00;5.97;;;;;;;8.76;100.00;95349.97;4941049;28;20546;-65
2023/03/31 03:50:58;;;;;;;9.32;5.53;;;;;;;8.80;100.00;95359.22;4940689;28;20034;-65
2023/03/31 03:53:24;;;;;;;9.50;6.18;;;;;;;8.89;100.00;95363.63;4944821;28;20103;-65
2023/03/31 03:55:50;;;;;;;9.75;6.35;;;;;;;8.79;100.00;95362.81;4946018;28;20491;-64
2023/03/31 03:58:18;;;;;;;10.02;6.45;;;;;;;8.90;100.00;95353.97;4954622;28;20043;-64
2023/03/31 04:00:44;;;;;;;9.30;5.50;;;;;;;8.80;100.00;95363.63;4955795;28;20031;-64
2023/03/31 04:03:09;;;;;;;12.55;6.78;;;;;;;8.69;100.00;95351.47;4954389;28;20424;-65
2023/03/31 04:05:35;;;;;;;11.15;6.18;;;;;;;8.85;100.00;95346.50;4939691;28;20027;-65
2023/03/31 04:08:01;;;;;;;9.10;5.78;;;;;;;8.79;100.00;95347.06;4946652;28;20403;-64
2023/03/31 04:10:27;;;;;;;8.27;5.95;;;;;;;8.74;100.00;95344.03;4956491;28;20386;-66
2023/03/31 04:12:52;;;;;;;11.30;6.47;;;;;;;8.71;100.00;95339.88;4924528;29;20114;-65
2023/03/31 04:15:17;;;;;;;17.13;6.03;;;;;;;8.71;100.00;95345.13;4942175;28;20100;-66
2023/03/31 04:17:49;;;;;;;12.05;6.10;;;;;;;8.84;100.00;95344.00;4941092;28;20395;-65
2023/03/31 04:20:16;;;;;;;11.80;6.28;;;;;;;8.79;100.00;95341.81;4926287;29;20198;-65
2023/03/31 04:22:45;;;;;;;13.25;6.72;;;;;;;8.92;100.00;95338.06;4949194;28;20019;-65
2023/03/31 04:25:15;;;;;;;7.40;5.80;;;;;;;8.82;100.00;95335.44;4947508;28;20035;-65
2023/03/31 04:27:49;;;;;;;6.90;5.85;;;;;;;8.79;100.00;95352.31;4948110;28;20054;-65
2023/03/31 04:30:21;;;;;;;9.02;6.05;;;;;;;8.90;100.00;95332.97;4955580;28;20471;-66
2023/03/31 04:32:55;;;;;;;12.02;6.13;;;;;;;8.85;100.00;95340.44;4940074;28;20075;-65
2023/03/31 04:35:22;;;;;;;13.85;6.22;;;;;;;8.88;100.00;95333.09;4947830;28;20078;-65
2023/03/31 04:37:48;;;;;;;11.63;6.38;;;;;;;8.94;100.00;95325.59;4939997;28;20024;-65
2023/03/31 04:40:15;;;;;;;11.18;6.10;;;;;;;8.88;100.00;95322.59;4956525;28;20027;-65
2023/03/31 04:42:41;;;;;;;14.27;6.38;;;;;;;8.85;100.00;95325.50;4952873;28;20027;-65
2023/03/31 04:45:07;;;;;;;8.55;5.53;;;;;;;8.81;100.00;95337.25;4939836;28;20107;-65
2023/03/31 04:47:32;;;;;;;9.82;5.97;;;;;;;8.93;100.00;95330.03;4941226;28;20114;-65
2023/03/31 04:49:58;;;;;;;13.93;6.10;;;;;;;8.83;100.00;95330.06;4958504;28;20027;-65
2023/03/31 04:52:23;;;;;;;10.65;5.18;;;;;;;9.13;100.00;95322.13;4957255;28;20027;-65
2023/03/31 04:54:48;;;;;;;10.32;6.38;;;;;;;8.97;100.00;95331.41;4943523;28;20026;-65
2023/03/31 04:57:14;;;;;;;15.40;6.45;;;;;;;8.96;100.00;95316.63;4949906;28;20043;-65
2023/03/31 04:59:39;;;;;;;8.80;5.90;;;;;;;8.88;100.00;95306.03;4951763;29;20380;-65
2023/03/31 05:02:05;;;;;;;8.15;6.05;;;;;;;8.90;100.00;95309.31;4925537;28;20027;-65
2023/03/31 05:04:30;;;;;;;15.23;6.32;;;;;;;8.89;100.00;95310.31;4947483;28;20499;-65
2023/03/31 05:06:56;;;;;;;8.38;5.30;;;;;;;8.86;100.00;95311.41;4953392;28;20035;-65
2023/03/31 05:09:21;;;;;;;13.73;5.90;;;;;;;8.87;100.00;95318.31;4956600;28;20749;-65
2023/03/31 05:11:47;;;;;;;14.32;5.95;;;;;;;8.87;100.00;95297.31;4952313;28;20448;-65
2023/03/31 05:14:12;;;;;;;14.65;6.20;;;;;;;8.86;100.00;95302.72;4946375;28;20079;-66
2023/03/31 05:16:37;;;;;;;7.85;5.80;;;;;;;8.89;100.00;95311.13;4945145;28;20468;-65
2023/03/31 05:19:03;;;;;;;11.85;6.30;;;;;;;8.95;100.00;95319.38;4957900;28;20038;-65
2023/03/31 05:21:30;;;;;;;11.20;5.85;;;;;;;8.97;100.00;95317.47;4947512;28;20498;-65
2023/03/31 05:23:56;;;;;;;13.82;6.45;;;;;;;9.05;100.00;95309.72;4956829;28;20376;-65
2023/03/31 05:26:24;;;;;;;8.98;5.95;;;;;;;8.93;100.00;95308.19;4949639;28;20513;-65
2023/03/31 05:28:52;;;;;;;8.93;6.03;;;;;;;8.94;100.00;95315.94;4926645;29;20425;-65
2023/03/31 05:31:18;;;;;;;15.05;11.85;;;;;;;8.89;100.00;95319.00;4941886;28;20123;-66
2023/03/31 05:33:44;;;;;;;12.73;7.60;;;;;;;8.87;100.00;95307.81;4957897;28;20055;-66
2023/03/31 05:36:13;;;;;;;9.63;7.85;;;;;;;8.89;100.00;95313.75;4954856;28;20015;-66
2023/03/31 05:38:39;;;;;;;15.05;6.65;;;;;;;8.91;100.00;95307.50;4948420;28;20031;-67
2023/03/31 05:41:06;;;;;;;14.10;7.03;;;;;;;8.86;100.00;95311.41;4944461;28;20027;-66
2023/03/31 05:43:31;;;;;;;9.40;6.90;;;;;;;8.82;100.00;95328.41;4945413;28;20051;-67
2023/03/31 05:45:57;;;;;;;14.82;7.18;;;;;;;8.93;100.00;95318.69;4941957;28;20059;-67
2023/03/31 05:48:22;;;;;;;10.25;7.90;;;;;;;8.88;100.00;95322.59;4946437;28;20054;-68
2023/03/31 05:50:48;;;;;;;20.45;8.13;;;;;;;8.95;100.00;95324.63;4947517;28;20396;-67
2023/03/31 05:53:13;;;;;;;20.35;9.88;;;;;;;8.93;100.00;95324.78;4947839;28;20039;-67
2023/03/31 05:55:39;;;;;;;18.98;11.43;;;;;;;8.93;100.00;95323.94;4933903;28;20031;-67
2023/03/31 05:58:05;;;;;;;15.50;8.50;;;;;;;8.84;100.00;95318.59;4923736;29;20044;-67
2023/03/31 06:00:31;;;;;;;13.80;9.23;;;;;;;8.84;100.00;95313.34;4940654;28;20042;-67
2023/03/31 06:02:57;;;;;;;14.88;8.80;;;;;;;8.79;100.00;95314.72;4948169;28;20587;-69
2023/03/31 06:05:25;;;;;;;11.00;7.50;;;;;;;8.84;100.00;95309.88;4930495;29;20069;-67
2023/03/31 06:07:51;;;;;;;11.48;7.45;;;;;;;8.91;100.00;95316.22;4944087;29;20031;-68
2023/03/31 06:10:17;;;;;;;14.57;8.00;;;;;;;8.90;100.00;95335.59;4924821;29;20139;-69
2023/03/31 06:12:42;;;;;;;12.13;7.72;;;;;;;8.85;100.00;95328.13;4948444;28;20082;-68
2023/03/31 06:15:08;;;;;;;13.10;8.07;;;;;;;8.89;100.00;95321.63;4949470;28;20020;-68
2023/03/31 06:17:33;;;;;;;15.70;9.43;;;;;;;8.85;100.00;95308.94;4937953;29;20015;-67
2023/03/31 06:19:58;;;;;;;11.48;7.82;;;;;;;8.88;100.00;95324.41;4945590;28;20030;-69
2023/03/31 06:22:24;;;;;;;10.30;7.10;;;;;;;8.93;100.00;95332.66;4945498;28;20027;-67
2023/03/31 06:24:49;;;;;;;16.73;8.05;;;;;;;8.94;100.00;95343.97;4945103;28;20058;-67
2023/03/31 06:27:14;;;;;;;17.85;9.13;;;;;;;8.91;100.00;95360.03;4942621;29;20039;-66
2023/03/31 06:29:40;;;;;;;15.85;8.13;;;;;;;8.85;100.00;95351.75;4937278;28;20149;-66
2023/03/31 06:32:05;;;;;;;14.68;8.43;;;;;;;8.84;100.00;95357.13;4947075;28;20027;-66
2023/03/31 06:34:30;;;;;;;15.45;9.30;;;;;;;8.92;100.00;95353.81;4950381;28;20109;-66
2023/03/31 06:36:56;;;;;;;16.73;8.85;;;;;;;8.85;100.00;95350.94;4945271;28;20279;-66
2023/03/31 06:39:21;;;;;;;13.57;8.75;;;;;;;8.85;100.00;95346.50;4939803;28;20062;-66
2023/03/31 06:41:47;;;;;;;14.90;8.35;;;;;;;8.81;100.00;95341.66;4945017;28;20320;-66
2023/03/31 06:44:15;;;;;;;16.35;8.50;;;;;;;8.84;100.00;95326.47;4953566;28;20449;-66
2023/03/31 06:46:41;;;;;;;14.90;10.25;;;;;;;8.89;100.00;95308.50;4946425;28;20413;-66
2023/03/31 06:49:06;;;;;;;17.48;10.90;;;;;;;8.80;100.00;95304.09;4947108;28;20046;-66
2023/03/31 06:51:31;;;;;;;16.27;9.75;;;;;;;8.82;100.00;95296.91;4938230;28;20333;-66
2023/03/31 06:53:57;;;;;;;12.20;8.50;;;;;;;8.82;100.00;95290.81;4944556;28;20264;-66
2023/03/31 06:56:22;;;;;;;12.40;9.10;;;;;;;8.83;100.00;95305.59;4945608;28;20067;-66
2023/03/31 06:58:48;;;;;;;12.68;9.02;;;;;;;8.77;100.00;95312.25;4947275;28;20038;-66
2023/03/31 07:01:13;;;;;;;16.77;10.05;;;;;;;8.73;100.00;95324.81;4928910;29;20043;-66
2023/03/31 07:03:38;;;;;;;19.45;9.15;;;;;;;8.69;100.00;95333.94;4929843;28;20031;-66
2023/03/31 07:06:04;;;;;;;14.40;8.88;;;;;;;8.80;100.00;95326.88;4938433;28;20023;-66
2023/03/31 07:08:30;;;;;;;20.65;10.10;;;;;;;8.81;100.00;95339.03;4937187;28;20032;-66
2023/03/31 07:10:58;;;;;;;20.50;10.45;;;;;;;8.77;100.00;95348.16;4934379;28;20031;-66
2023/03/31 07:13:24;;;;;;;18.75;11.32;;;;;;;8.79;100.00;95357.56;4938153;28;20103;-66
2023/03/31 07:15:50;;;;;;;16.65;10.70;;;;;;;8.98;100.00;95355.88;4952886;28;20570;-66
2023/03/31 07:18:17;;;;;;;17.17;11.45;;;;;;;8.94;100.00;95349.25;4942109;28;20035;-66
2023/03/31 07:20:46;;;;;;;14.63;11.10;;;;;;;8.97;100.00;95351.59;4971440;28;20327;-66
2023/03/31 07:23:11;;;;;;;18.90;11.80;;;;;;;9.00;100.00;95343.44;4946653;28;20024;-66
2023/03/31 07:25:37;;;;;;;16.98;10.95;;;;;;;8.97;100.00;95330.59;4945436;28;20016;-66
2023/03/31 07:28:04;;;;;;;19.80;12.77;;;;;;;8.98;100.00;95334.88;4935899;28;20451;-66
2023/03/31 07:30:29;;;;;;;23.67;14.10;;;;;;;8.97;100.00;95327.97;4951393;28;20035;-66
2023/03/31 07:32:55;;;;;;;24.27;16.13;;;;;;;9.00;100.00;95330.31;4939793;28;20027;-66
2023/03/31 07:35:21;;;;;;;20.63;13.90;;;;;;;9.08;100.00;95317.31;4944397;28;20114;-66
2023/03/31 07:37:49;;;;;;;30.55;19.02;;;;;;;9.09;100.00;95316.31;4953061;28;20070;-66
2023/03/31 07:40:20;;;;;;;27.92;16.40;;;;;;;9.32;100.00;95287.09;4956662;28;20023;-66
2023/03/31 07:42:47;;;;;;;22.08;14.90;;;;;;;9.27;100.00;95284.88;4953503;28;20856;-66
2023/03/31 07:45:13;;;;;;;18.15;12.07;;;;;;;9.26;100.00;95277.16;4948633;28;20024;-66
2023/03/31 07:47:39;;;;;;;17.50;11.25;;;;;;;9.31;100.00;95269.66;4940281;28;20066;-66
2023/03/31 07:50:06;;;;;;;18.80;12.02;;;;;;;9.25;100.00;95284.19;4944316;28;20031;-67
2023/03/31 07:52:31;;;;;;;25.40;17.85;;;;;;;9.19;100.00;95282.16;4952978;28;20074;-66
2023/03/31 07:54:57;;;;;;;23.65;15.52;;;;;;;9.18;100.00;95306.78;4938318;28;20114;-66
2023/03/31 07:57:22;;;;;;;19.10;11.68;;;;;;;9.13;100.00;95312.44;4939140;28;20043;-66
2023/03/31 07:59:47;;;;;;;19.25;11.95;;;;;;;9.10;100.00;95312.72;4951999;28;20027;-66
2023/03/31 08:02:15;;;;;;;19.95;12.07;;;;;;;9.59;100.00;95314.34;4939361;29;20050;-67
2023/03/31 08:04:41;;;;;;;20.08;15.10;;;;;;;9.56;100.00;95314.66;4946810;28;20063;-67
2023/03/31 08:07:07;;;;;;;18.35;14.07;;;;;;;9.42;100.00;95316.81;4954906;28;20042;-67
2023/03/31 08:09:33;;;;;;;25.20;18.08;;;;;;;9.33;100.00;95330.78;4949795;28;20094;-66
2023/03/31 08:11:59;;;;;;;18.17;14.25;;;;;;;9.24;100.00;95329.03;4950791;28;20031;-67
2023/03/31 08:14:24;;;;;;;22.10;15.00;;;;;;;9.27;100.00;95324.28;4947437;28;20032;-66
2023/03/31 08:16:50;;;;;;;22.42;12.23;;;;;;;9.32;100.00;95331.75;4941093;28;20097;-67
2023/03/31 08:19:15;;;;;;;17.63;11.38;;;;;;;9.27;100.00;95332.16;4955285;28;20404;-66
2023/03/31 08:21:41;;;;;;;18.10;11.60;;;;;;;9.21;100.00;95339.81;4953625;28;20041;-67
2023/03/31 08:24:06;;;;;;;18.58;13.68;;;;;;;9.06;100.00;95356.00;4956910;28;20514;-67
2023/03/31 08:26:33;;;;;;;19.65;13.13;;;;;;;9.05;100.00;95356.97;4957089;28;20531;-66
2023/03/31 08:28:59;;;;;;;18.58;11.80;;;;;;;8.91;100.00;95391.53;4946539;28;20058;-67
2023/03/31 08:31:25;;;;;;;20.33;13.63;;;;;;;8.77;100.00;95416.41;4939424;28;20024;-67
2023/03/31 08:33:50;;;;;;;26.05;14.88;;;;;;;8.75;100.00;95411.31;4945337;28;20031;-67
2023/03/31 08:36:16;;;;;;;38.03;24.85;;;;;;;8.74;100.00;95430.66;4949239;28;20532;-67
2023/03/31 08:38:44;;;;;;;17.98;11.43;;;;;;;8.91;100.00;95420.41;4940787;28;20023;-67
2023/03/31 08:41:39;;;;;;;13.38;10.32;;;;;;;8.96;100.00;95445.28;4951373;28;20023;-66
2023/03/31 08:44:13;;;;;;;17.67;11.80;;;;;;;8.85;100.00;95464.63;4920021;29;20039;-66
2023/03/31 08:46:39;;;;;;;20.50;11.85;;;;;;;8.86;100.00;95479.41;4938299;28;20448;-67
2023/03/31 08:49:06;;;;;;;20.33;12.70;;;;;;;8.70;100.00;95465.97;4942973;28;20036;-67
2023/03/31 08:51:38;;;;;;;17.95;11.30;;;;;;;8.69;100.00;95456.44;4937834;28;20078;-66
2023/03/31 08:54:07;;;;;;;17.48;11.13;;;;;;;8.94;100.00;95443.75;4946601;28;20128;-67
2023/03/31 08:56:40;;;;;;;17.80;13.63;;;;;;;8.88;100.00;95439.91;4936935;28;20047;-67
2023/03/31 08:59:19;;;;;;;17.35;11.43;;;;;;;8.93;100.00;95427.19;4950363;28;20036;-67
2023/03/31 09:02:11;;;;;;;20.23;12.90;;;;;;;9.00;100.00;95411.72;4954495;28;20031;-67
2023/03/31 09:04:55;;;;;;;62.60;33.53;;;;;;;9.00;100.00;95407.28;4939397;28;20019;-67
2023/03/31 09:07:57;;;;;;;29.10;18.23;;;;;;;9.01;100.00;95410.75;4942930;28;20059;-67
2023/03/31 09:10:33;;;;;;;22.80;12.65;;;;;;;9.04;100.00;95392.09;4942378;28;20039;-67
2023/03/31 09:13:24;;;;;;;;;;;;;;;9.01;100.00;95398.44;4937391;28;20106;-67
2023/03/31 09:16:01;;;;;;;18.33;13.43;;;;;;;9.14;100.00;95385.00;4937458;28;19910;-67
2023/03/31 09:18:34;;;;;;;19.05;15.27;;;;;;;9.31;100.00;95377.38;4945125;28;20476;-67
2023/03/31 09:21:29;;;;;;;54.38;27.42;;;;;;;9.41;100.00;95361.59;4947832;28;20207;-67
2023/03/31 09:24:00;;;;;;;31.42;19.35;;;;;;;9.46;100.00;95360.19;4944317;28;20023;-67
2023/03/31 09:26:36;;;;;;;57.45;29.60;;;;;;;9.50;100.00;95358.09;4953338;28;20395;-67
2023/03/31 09:29:09;;;;;;;55.00;30.90;;;;;;;9.53;100.00;95349.09;4946122;28;20039;-67
2023/03/31 09:31:36;;;;;;;26.83;19.35;;;;;;;9.63;100.00;95344.66;4940243;28;20110;-67
2023/03/31 09:34:12;;;;;;;25.00;17.92;;;;;;;9.80;100.00;95340.44;4951301;28;20062;-67
2023/03/31 09:36:38;;;;;;;27.00;19.77;;;;;;;9.62;100.00;95334.28;4937593;28;20031;-67
2023/03/31 09:39:04;;;;;;;26.77;17.90;;;;;;;9.61;100.00;95330.81;4947067;28;20039;-67
2023/03/31 09:41:29;;;;;;;24.13;19.13;;;;;;;9.55;100.00;95340.13;4941722;28;20078;-67
2023/03/31 09:43:55;;;;;;;26.52;21.80;;;;;;;9.51;100.00;95348.44;4955243;28;20031;-67
2023/03/31 09:46:32;;;;;;;31.70;25.88;;;;;;;9.52;100.00;95336.94;4925565;28;20031;-67
2023/03/31 09:49:05;;;;;;;33.83;28.10;;;;;;;9.62;100.00;95332.50;4949113;28;20109;-67
2023/03/31 09:51:36;;;;;;;38.95;33.90;;;;;;;9.74;100.00;95341.81;4949121;28;20583;-67
2023/03/31 09:54:28;;;;;;;37.03;28.38;;;;;;;9.96;100.00;95329.28;4940468;28;20050;-67
2023/03/31 09:56:54;;;;;;;27.55;20.63;;;;;;;10.57;100.00;95337.50;4935600;28;20536;-67
2023/03/31 09:59:30;;;;;;;23.83;18.73;;;;;;;11.09;100.00;95335.91;4936024;28;20115;-67
2023/03/31 10:01:59;;;;;;;21.17;17.55;;;;;;;11.93;95.37;95353.84;4945169;28;20031;-67
2023/03/31 10:04:28;;;;;;;22.00;18.00;;;;;;;12.06;98.08;95340.25;4933698;29;20150;-67
2023/03/31 10:06:55;;;;;;;23.50;19.30;;;;;;;12.31;96.17;95362.28;4939574;28;20087;-66
2023/03/31 10:09:26;;;;;;;21.15;18.08;;;;;;;12.70;95.89;95349.44;4935730;28;20040;-66
2023/03/31 10:12:03;;;;;;;21.73;15.65;;;;;;;13.33;86.02;95336.56;4944923;28;20090;-67
2023/03/31 10:14:40;;;;;;;22.65;15.85;;;;;;;13.70;84.62;95324.59;4936810;28;20031;-68
2023/03/31 10:17:06;;;;;;;16.50;13.57;;;;;;;13.99;78.61;95332.94;4938840;28;20097;-67
2023/03/31 10:19:36;;;;;;;16.20;12.75;;;;;;;14.17;76.83;95340.63;4955542;28;20525;-67
2023/03/31 10:22:27;;;;;;;17.77;12.13;;;;;;;14.23;71.63;95321.38;4940773;28;20026;-67
2023/03/31 10:24:53;;;;;;;15.07;13.52;;;;;;;13.98;77.23;95326.00;4942150;28;20495;-67
2023/03/31 10:27:23;;;;;;;16.15;13.13;;;;;;;14.53;74.37;95329.50;4949611;28;20465;-67
2023/03/31 10:29:57;;;;;;;17.48;14.32;;;;;;;14.56;73.67;95323.00;4940179;28;20036;-68
2023/03/31 10:32:36;;;;;;;17.55;13.85;;;;;;;14.36;75.21;95325.31;4944766;28;20023;-67
2023/03/31 10:35:26;;;;;;;16.95;11.48;;;;;;;14.69;60.62;95325.91;4946032;28;20050;-67
2023/03/31 10:38:06;;;;;;;12.98;11.65;;;;;;;14.71;64.23;95318.66;4942219;28;20047;-67
2023/03/31 10:40:33;;;;;;;14.50;10.98;;;;;;;14.85;64.96;95327.66;4954374;28;20042;-67
2023/03/31 10:43:12;;;;;;;12.32;10.95;;;;;;;15.15;61.97;95325.09;4940532;28;20047;-67
2023/03/31 10:45:51;;;;;;;14.43;11.63;;;;;;;15.04;67.46;95318.41;4942819;28;20035;-67
2023/03/31 10:48:18;;;;;;;14.32;9.95;;;;;;;15.65;59.28;95327.25;4950295;28;20530;-68
2023/03/31 10:50:43;;;;;;;15.38;10.20;;;;;;;15.56;59.08;95323.88;4954084;28;20037;-67
2023/03/31 10:53:14;;;;;;;11.18;10.02;;;;;;;15.55;61.27;95305.47;4939388;28;20396;-68
2023/03/31 10:55:48;;;;;;;16.27;10.25;;;;;;;16.11;56.33;95310.31;4945943;28;20066;-68
2023/03/31 10:58:22;;;;;;;13.48;10.32;;;;;;;16.60;52.68;95284.88;4936355;28;20110;-68
2023/03/31 11:01:17;;;;;;;15.65;9.65;;;;;;;16.32;55.66;95290.09;4949347;28;20043;-67
2023/03/31 11:04:03;;;;;;;11.68;9.27;;;;;;;16.67;52.81;95271.66;4923202;28;20046;-68
2023/03/31 11:06:56;;;;;;;13.48;8.77;;;;;;;17.16;52.35;95259.44;4951288;28;20420;-68
2023/03/31 11:09:42;;;;;;;12.07;9.30;;;;;;;16.90;54.48;95255.50;4951829;28;20043;-68
2023/03/31 11:12:17;;;;;;;13.80;9.70;;;;;;;16.93;52.13;95245.50;4936484;28;20111;-68
2023/03/31 11:15:02;;;;;;;12.13;9.18;;;;;;;17.43;50.16;95238.31;4953899;28;20055;-66
2023/03/31 11:17:38;;;;;;;13.80;9.77;;;;;;;17.51;46.83;95223.19;4960344;28;20499;-66
2023/03/31 11:20:06;;;;;;;10.23;8.95;;;;;;;17.13;46.43;95224.41;4953621;28;20400;-66
2023/03/31 11:23:17;;;;;;;8.95;8.05;;;;;;;17.06;46.59;95211.06;4945425;28;20032;-66
2023/03/31 11:26:09;;;;;;;11.43;8.70;;;;;;;16.54;48.93;95215.72;4916505;28;20090;-66
2023/03/31 11:28:35;;;;;;;12.10;9.57;;;;;;;16.69;52.74;95213.81;4947394;28;20035;-66
2023/03/31 11:31:15;;;;;;;13.50;9.35;;;;;;;17.03;51.37;95211.44;4950760;28;20038;-66
2023/03/31 11:34:02;;;;;;;12.98;9.60;;;;;;;16.68;49.28;95214.00;4953427;28;20071;-66
2023/03/31 11:37:17;;;;;;;12.30;9.65;;;;;;;16.24;47.58;95221.19;4926783;28;20023;-66
2023/03/31 11:39:45;;;;;;;13.43;9.80;;;;;;;15.82;48.88;95221.72;4947962;28;20094;-65
2023/03/31 11:42:18;;;;;;;14.07;9.30;;;;;;;15.98;44.54;95218.06;4949194;28;20030;-66